sensor_id;sensor_type;location;lat;lon;timestamp;P1;durP1;ratioP1;P2;durP2;ratioP2
4829;SDS011;2429;52.586;14.322;2023-12-04T00:00:01;17.58;;;9.38;;
4829;SDS011;2429;52.586;14.322;2023-12-04T00:05:06;19.77;;;10.20;;
4829;SDS011;2429;52.586;14.322;2023-12-04T00:15:16;19.52;;;9.10;;
4829;SDS011;2429;52.586;14.322;2023-12-04T00:20:22;17.05;;;8.73;;
4829;SDS011;2429;52.586;14.322;2023-12-04T00:25:26;20.13;;;11.13;;
4829;SDS011;2429;52.586;14.322;2023-12-04T00:30:31;22.30;;;10.35;;
4829;SDS011;2429;52.586;14.322;2023-12-04T00:35:35;21.48;;;9.93;;
4829;SDS011;2429;52.586;14.322;2023-12-04T00:40:40;19.50;;;9.48;;
4829;SDS011;2429;52.586;14.322;2023-12-04T00:50:48;18.13;;;10.38;;
4829;SDS011;2429;52.586;14.322;2023-12-04T00:55:54;19.35;;;8.52;;
4829;SDS011;2429;52.586;14.322;2023-12-04T01:00:59;18.20;;;9.20;;
4829;SDS011;2429;52.586;14.322;2023-12-04T01:06:03;19.85;;;10.40;;
4829;SDS011;2429;52.586;14.322;2023-12-04T01:11:07;21.08;;;9.88;;
4829;SDS011;2429;52.586;14.322;2023-12-04T01:16:12;16.67;;;8.60;;
4829;SDS011;2429;52.586;14.322;2023-12-04T01:21:16;17.73;;;9.35;;
4829;SDS011;2429;52.586;14.322;2023-12-04T01:26:20;18.10;;;10.32;;
4829;SDS011;2429;52.586;14.322;2023-12-04T01:31:25;23.45;;;9.50;;
4829;SDS011;2429;52.586;14.322;2023-12-04T01:36:29;15.18;;;8.95;;
4829;SDS011;2429;52.586;14.322;2023-12-04T01:41:33;20.13;;;10.60;;
4829;SDS011;2429;52.586;14.322;2023-12-04T01:46:38;22.60;;;9.55;;
4829;SDS011;2429;52.586;14.322;2023-12-04T01:51:43;19.70;;;9.73;;
4829;SDS011;2429;52.586;14.322;2023-12-04T01:56:47;19.42;;;9.07;;
4829;SDS011;2429;52.586;14.322;2023-12-04T02:01:53;18.60;;;9.35;;
4829;SDS011;2429;52.586;14.322;2023-12-04T02:06:57;18.25;;;10.40;;
4829;SDS011;2429;52.586;14.322;2023-12-04T02:12:02;21.58;;;9.60;;
4829;SDS011;2429;52.586;14.322;2023-12-04T02:17:09;22.23;;;9.70;;
4829;SDS011;2429;52.586;14.322;2023-12-04T02:22:14;16.75;;;9.25;;
4829;SDS011;2429;52.586;14.322;2023-12-04T02:27:22;18.42;;;9.25;;
4829;SDS011;2429;52.586;14.322;2023-12-04T02:32:30;24.25;;;9.20;;
4829;SDS011;2429;52.586;14.322;2023-12-04T02:37:36;20.45;;;10.35;;
4829;SDS011;2429;52.586;14.322;2023-12-04T02:42:43;16.17;;;8.63;;
4829;SDS011;2429;52.586;14.322;2023-12-04T02:47:48;22.27;;;9.35;;
4829;SDS011;2429;52.586;14.322;2023-12-04T02:52:52;16.98;;;9.30;;
4829;SDS011;2429;52.586;14.322;2023-12-04T02:57:57;19.23;;;8.75;;
4829;SDS011;2429;52.586;14.322;2023-12-04T03:03:01;17.50;;;9.32;;
4829;SDS011;2429;52.586;14.322;2023-12-04T03:08:05;16.63;;;9.00;;
4829;SDS011;2429;52.586;14.322;2023-12-04T03:13:10;16.75;;;8.07;;
4829;SDS011;2429;52.586;14.322;2023-12-04T03:18:14;18.58;;;8.95;;
4829;SDS011;2429;52.586;14.322;2023-12-04T03:23:18;15.18;;;8.25;;
4829;SDS011;2429;52.586;14.322;2023-12-04T03:28:24;15.07;;;7.88;;
4829;SDS011;2429;52.586;14.322;2023-12-04T03:33:28;20.80;;;9.25;;
4829;SDS011;2429;52.586;14.322;2023-12-04T03:38:32;20.85;;;10.05;;
4829;SDS011;2429;52.586;14.322;2023-12-04T03:43:38;17.20;;;7.88;;
4829;SDS011;2429;52.586;14.322;2023-12-04T03:48:41;17.23;;;8.77;;
4829;SDS011;2429;52.586;14.322;2023-12-04T03:53:46;18.48;;;8.60;;
4829;SDS011;2429;52.586;14.322;2023-12-04T03:58:51;15.93;;;8.38;;
4829;SDS011;2429;52.586;14.322;2023-12-04T04:03:55;16.45;;;8.95;;
4829;SDS011;2429;52.586;14.322;2023-12-04T04:08:59;19.75;;;8.27;;
4829;SDS011;2429;52.586;14.322;2023-12-04T04:14:05;18.23;;;8.85;;
4829;SDS011;2429;52.586;14.322;2023-12-04T04:19:08;19.05;;;9.05;;
4829;SDS011;2429;52.586;14.322;2023-12-04T04:24:15;17.60;;;9.55;;
4829;SDS011;2429;52.586;14.322;2023-12-04T04:29:20;14.20;;;6.93;;
4829;SDS011;2429;52.586;14.322;2023-12-04T04:34:24;18.67;;;8.73;;
4829;SDS011;2429;52.586;14.322;2023-12-04T04:39:28;17.40;;;9.38;;
4829;SDS011;2429;52.586;14.322;2023-12-04T04:44:34;27.08;;;13.95;;
4829;SDS011;2429;52.586;14.322;2023-12-04T04:54:41;29.95;;;12.75;;
4829;SDS011;2429;52.586;14.322;2023-12-04T04:59:47;45.30;;;20.17;;
4829;SDS011;2429;52.586;14.322;2023-12-04T05:04:50;30.73;;;13.15;;
4829;SDS011;2429;52.586;14.322;2023-12-04T05:09:54;37.40;;;16.17;;
4829;SDS011;2429;52.586;14.322;2023-12-04T05:15:00;25.50;;;11.70;;
4829;SDS011;2429;52.586;14.322;2023-12-04T05:20:04;22.90;;;10.77;;
4829;SDS011;2429;52.586;14.322;2023-12-04T05:25:09;21.70;;;9.20;;
4829;SDS011;2429;52.586;14.322;2023-12-04T05:30:15;15.70;;;8.13;;
4829;SDS011;2429;52.586;14.322;2023-12-04T05:35:19;20.48;;;8.75;;
4829;SDS011;2429;52.586;14.322;2023-12-04T05:40:23;17.38;;;7.00;;
4829;SDS011;2429;52.586;14.322;2023-12-04T05:45:29;22.67;;;8.75;;
4829;SDS011;2429;52.586;14.322;2023-12-04T05:50:33;19.90;;;10.13;;
4829;SDS011;2429;52.586;14.322;2023-12-04T05:55:37;26.02;;;10.73;;
4829;SDS011;2429;52.586;14.322;2023-12-04T06:00:43;24.27;;;10.63;;
4829;SDS011;2429;52.586;14.322;2023-12-04T06:05:47;24.55;;;11.35;;
4829;SDS011;2429;52.586;14.322;2023-12-04T06:10:51;25.58;;;10.82;;
4829;SDS011;2429;52.586;14.322;2023-12-04T06:15:57;29.27;;;12.77;;
4829;SDS011;2429;52.586;14.322;2023-12-04T06:21:01;26.98;;;11.65;;
4829;SDS011;2429;52.586;14.322;2023-12-04T06:26:05;25.45;;;11.50;;
4829;SDS011;2429;52.586;14.322;2023-12-04T06:31:12;32.33;;;11.68;;
4829;SDS011;2429;52.586;14.322;2023-12-04T06:36:17;24.17;;;10.13;;
4829;SDS011;2429;52.586;14.322;2023-12-04T06:41:22;22.45;;;10.50;;
4829;SDS011;2429;52.586;14.322;2023-12-04T06:46:28;23.92;;;9.95;;
4829;SDS011;2429;52.586;14.322;2023-12-04T06:51:34;20.88;;;9.48;;
4829;SDS011;2429;52.586;14.322;2023-12-04T06:56:38;29.42;;;11.18;;
4829;SDS011;2429;52.586;14.322;2023-12-04T07:01:43;20.65;;;9.52;;
4829;SDS011;2429;52.586;14.322;2023-12-04T07:06:47;24.65;;;10.07;;
4829;SDS011;2429;52.586;14.322;2023-12-04T07:11:52;20.20;;;9.82;;
4829;SDS011;2429;52.586;14.322;2023-12-04T07:16:58;21.83;;;10.43;;
4829;SDS011;2429;52.586;14.322;2023-12-04T07:22:03;21.90;;;10.77;;
4829;SDS011;2429;52.586;14.322;2023-12-04T07:27:07;25.40;;;11.00;;
4829;SDS011;2429;52.586;14.322;2023-12-04T07:32:13;22.80;;;10.25;;
4829;SDS011;2429;52.586;14.322;2023-12-04T07:37:17;24.13;;;10.38;;
4829;SDS011;2429;52.586;14.322;2023-12-04T07:42:21;22.73;;;11.05;;
4829;SDS011;2429;52.586;14.322;2023-12-04T07:47:27;22.13;;;10.52;;
4829;SDS011;2429;52.586;14.322;2023-12-04T07:52:31;20.05;;;9.43;;
4829;SDS011;2429;52.586;14.322;2023-12-04T07:57:35;25.38;;;10.77;;
4829;SDS011;2429;52.586;14.322;2023-12-04T08:02:40;28.05;;;13.05;;
4829;SDS011;2429;52.586;14.322;2023-12-04T08:07:47;24.15;;;13.02;;
4829;SDS011;2429;52.586;14.322;2023-12-04T08:12:51;28.38;;;11.55;;
4829;SDS011;2429;52.586;14.322;2023-12-04T08:17:56;23.77;;;10.43;;
4829;SDS011;2429;52.586;14.322;2023-12-04T08:23:00;57.10;;;29.25;;
4829;SDS011;2429;52.586;14.322;2023-12-04T08:28:05;26.20;;;11.63;;
4829;SDS011;2429;52.586;14.322;2023-12-04T08:33:12;30.15;;;14.18;;
4829;SDS011;2429;52.586;14.322;2023-12-04T08:38:16;36.78;;;19.55;;
4829;SDS011;2429;52.586;14.322;2023-12-04T08:43:21;31.17;;;16.77;;
4829;SDS011;2429;52.586;14.322;2023-12-04T08:53:32;24.38;;;10.65;;
4829;SDS011;2429;52.586;14.322;2023-12-04T08:58:36;28.05;;;12.82;;
4829;SDS011;2429;52.586;14.322;2023-12-04T09:03:42;29.05;;;13.20;;
4829;SDS011;2429;52.586;14.322;2023-12-04T09:08:46;28.88;;;12.30;;
4829;SDS011;2429;52.586;14.322;2023-12-04T09:13:58;55.20;;;22.88;;
4829;SDS011;2429;52.586;14.322;2023-12-04T09:19:04;60.80;;;24.77;;
4829;SDS011;2429;52.586;14.322;2023-12-04T09:24:08;44.95;;;21.08;;
4829;SDS011;2429;52.586;14.322;2023-12-04T09:29:12;32.75;;;16.92;;
4829;SDS011;2429;52.586;14.322;2023-12-04T09:34:17;25.83;;;13.02;;
4829;SDS011;2429;52.586;14.322;2023-12-04T09:39:22;27.52;;;13.40;;
4829;SDS011;2429;52.586;14.322;2023-12-04T09:44:26;33.05;;;13.48;;
4829;SDS011;2429;52.586;14.322;2023-12-04T09:49:33;26.90;;;12.43;;
4829;SDS011;2429;52.586;14.322;2023-12-04T09:54:37;24.00;;;13.02;;
4829;SDS011;2429;52.586;14.322;2023-12-04T09:59:43;26.55;;;12.48;;
4829;SDS011;2429;52.586;14.322;2023-12-04T10:04:49;24.67;;;12.63;;
4829;SDS011;2429;52.586;14.322;2023-12-04T10:09:53;26.58;;;12.18;;
4829;SDS011;2429;52.586;14.322;2023-12-04T10:15:03;29.35;;;13.98;;
4829;SDS011;2429;52.586;14.322;2023-12-04T10:20:10;93.13;;;41.08;;
4829;SDS011;2429;52.586;14.322;2023-12-04T10:25:20;31.70;;;13.98;;
4829;SDS011;2429;52.586;14.322;2023-12-04T10:30:25;27.38;;;14.05;;
4829;SDS011;2429;52.586;14.322;2023-12-04T10:35:32;28.63;;;13.98;;
4829;SDS011;2429;52.586;14.322;2023-12-04T10:40:38;28.02;;;14.20;;
4829;SDS011;2429;52.586;14.322;2023-12-04T10:45:42;28.05;;;15.02;;
4829;SDS011;2429;52.586;14.322;2023-12-04T10:50:49;28.88;;;14.10;;
4829;SDS011;2429;52.586;14.322;2023-12-04T10:55:52;27.05;;;14.57;;
4829;SDS011;2429;52.586;14.322;2023-12-04T11:00:59;28.58;;;14.27;;
4829;SDS011;2429;52.586;14.322;2023-12-04T11:06:08;26.92;;;14.93;;
4829;SDS011;2429;52.586;14.322;2023-12-04T11:11:16;26.15;;;14.52;;
4829;SDS011;2429;52.586;14.322;2023-12-04T11:16:27;27.88;;;13.93;;
4829;SDS011;2429;52.586;14.322;2023-12-04T11:21:37;28.17;;;14.20;;
4829;SDS011;2429;52.586;14.322;2023-12-04T11:26:42;24.23;;;12.35;;
4829;SDS011;2429;52.586;14.322;2023-12-04T11:31:47;23.42;;;13.30;;
4829;SDS011;2429;52.586;14.322;2023-12-04T11:36:53;24.17;;;13.05;;
4829;SDS011;2429;52.586;14.322;2023-12-04T11:41:58;26.45;;;13.50;;
4829;SDS011;2429;52.586;14.322;2023-12-04T11:52:09;88.50;;;32.13;;
4829;SDS011;2429;52.586;14.322;2023-12-04T11:57:20;101.85;;;36.05;;
4829;SDS011;2429;52.586;14.322;2023-12-04T12:02:26;82.57;;;33.40;;
4829;SDS011;2429;52.586;14.322;2023-12-04T12:07:51;38.33;;;18.73;;
4829;SDS011;2429;52.586;14.322;2023-12-04T12:12:56;34.83;;;16.75;;
4829;SDS011;2429;52.586;14.322;2023-12-04T12:18:00;35.15;;;17.83;;
4829;SDS011;2429;52.586;14.322;2023-12-04T12:23:06;23.25;;;13.43;;
4829;SDS011;2429;52.586;14.322;2023-12-04T12:28:10;26.15;;;13.90;;
4829;SDS011;2429;52.586;14.322;2023-12-04T12:33:14;27.38;;;16.88;;
4829;SDS011;2429;52.586;14.322;2023-12-04T12:38:20;25.10;;;13.73;;
4829;SDS011;2429;52.586;14.322;2023-12-04T12:43:27;30.08;;;16.13;;
4829;SDS011;2429;52.586;14.322;2023-12-04T12:48:31;28.40;;;11.88;;
4829;SDS011;2429;52.586;14.322;2023-12-04T12:53:37;24.25;;;13.40;;
4829;SDS011;2429;52.586;14.322;2023-12-04T12:58:44;75.20;;;31.27;;
4829;SDS011;2429;52.586;14.322;2023-12-04T13:03:48;36.33;;;19.42;;
4829;SDS011;2429;52.586;14.322;2023-12-04T13:08:54;25.65;;;13.38;;
4829;SDS011;2429;52.586;14.322;2023-12-04T13:13:57;25.92;;;13.27;;
4829;SDS011;2429;52.586;14.322;2023-12-04T13:19:01;21.42;;;12.00;;
4829;SDS011;2429;52.586;14.322;2023-12-04T13:24:07;27.27;;;12.88;;
4829;SDS011;2429;52.586;14.322;2023-12-04T13:29:12;23.20;;;11.82;;
4829;SDS011;2429;52.586;14.322;2023-12-04T13:34:19;23.45;;;11.85;;
4829;SDS011;2429;52.586;14.322;2023-12-04T13:39:26;21.88;;;11.82;;
4829;SDS011;2429;52.586;14.322;2023-12-04T13:44:50;26.42;;;14.25;;
4829;SDS011;2429;52.586;14.322;2023-12-04T13:49:54;43.53;;;17.60;;
4829;SDS011;2429;52.586;14.322;2023-12-04T13:54:59;49.85;;;20.63;;
4829;SDS011;2429;52.586;14.322;2023-12-04T14:00:03;76.88;;;32.35;;
4829;SDS011;2429;52.586;14.322;2023-12-04T14:05:09;32.92;;;15.60;;
4829;SDS011;2429;52.586;14.322;2023-12-04T14:10:19;24.13;;;12.32;;
4829;SDS011;2429;52.586;14.322;2023-12-04T14:15:23;35.10;;;16.45;;
4829;SDS011;2429;52.586;14.322;2023-12-04T14:20:27;32.38;;;17.23;;
4829;SDS011;2429;52.586;14.322;2023-12-04T14:25:33;22.70;;;13.00;;
4829;SDS011;2429;52.586;14.322;2023-12-04T14:30:37;23.63;;;13.35;;
4829;SDS011;2429;52.586;14.322;2023-12-04T14:35:42;19.13;;;11.45;;
4829;SDS011;2429;52.586;14.322;2023-12-04T14:40:47;21.92;;;12.02;;
4829;SDS011;2429;52.586;14.322;2023-12-04T14:45:51;21.40;;;10.93;;
4829;SDS011;2429;52.586;14.322;2023-12-04T14:50:56;25.23;;;12.35;;
4829;SDS011;2429;52.586;14.322;2023-12-04T14:56:05;22.63;;;11.80;;
4829;SDS011;2429;52.586;14.322;2023-12-04T15:01:43;18.45;;;11.02;;
4829;SDS011;2429;52.586;14.322;2023-12-04T15:07:05;22.45;;;11.30;;
4829;SDS011;2429;52.586;14.322;2023-12-04T15:12:27;22.27;;;12.00;;
4829;SDS011;2429;52.586;14.322;2023-12-04T15:17:48;28.48;;;13.60;;
4829;SDS011;2429;52.586;14.322;2023-12-04T15:22:54;31.25;;;14.45;;
4829;SDS011;2429;52.586;14.322;2023-12-04T15:28:01;24.80;;;14.07;;
4829;SDS011;2429;52.586;14.322;2023-12-04T15:33:09;27.83;;;14.25;;
4829;SDS011;2429;52.586;14.322;2023-12-04T15:38:13;26.13;;;13.25;;
4829;SDS011;2429;52.586;14.322;2023-12-04T15:43:19;28.95;;;14.85;;
4829;SDS011;2429;52.586;14.322;2023-12-04T15:48:24;26.23;;;14.15;;
4829;SDS011;2429;52.586;14.322;2023-12-04T15:53:28;27.35;;;13.23;;
4829;SDS011;2429;52.586;14.322;2023-12-04T15:58:34;26.48;;;13.85;;
4829;SDS011;2429;52.586;14.322;2023-12-04T16:03:38;31.88;;;14.63;;
4829;SDS011;2429;52.586;14.322;2023-12-04T16:08:42;31.15;;;14.80;;
4829;SDS011;2429;52.586;14.322;2023-12-04T16:13:48;33.90;;;14.55;;
4829;SDS011;2429;52.586;14.322;2023-12-04T16:18:51;34.53;;;15.40;;
4829;SDS011;2429;52.586;14.322;2023-12-04T16:23:56;31.63;;;14.95;;
4829;SDS011;2429;52.586;14.322;2023-12-04T16:29:01;37.58;;;18.15;;
4829;SDS011;2429;52.586;14.322;2023-12-04T16:34:05;33.90;;;15.52;;
4829;SDS011;2429;52.586;14.322;2023-12-04T16:39:09;39.60;;;19.08;;
4829;SDS011;2429;52.586;14.322;2023-12-04T16:44:15;55.50;;;26.23;;
4829;SDS011;2429;52.586;14.322;2023-12-04T16:49:19;79.68;;;31.55;;
4829;SDS011;2429;52.586;14.322;2023-12-04T16:54:23;51.45;;;24.02;;
4829;SDS011;2429;52.586;14.322;2023-12-04T16:59:28;66.15;;;21.95;;
4829;SDS011;2429;52.586;14.322;2023-12-04T17:04:32;38.85;;;17.88;;
4829;SDS011;2429;52.586;14.322;2023-12-04T17:09:36;34.95;;;16.75;;
4829;SDS011;2429;52.586;14.322;2023-12-04T17:14:43;31.48;;;15.85;;
4829;SDS011;2429;52.586;14.322;2023-12-04T17:19:47;35.70;;;17.38;;
4829;SDS011;2429;52.586;14.322;2023-12-04T17:24:50;83.97;;;36.72;;
4829;SDS011;2429;52.586;14.322;2023-12-04T17:29:56;39.25;;;16.77;;
4829;SDS011;2429;52.586;14.322;2023-12-04T17:35:00;29.80;;;15.18;;
4829;SDS011;2429;52.586;14.322;2023-12-04T17:40:05;35.38;;;16.67;;
4829;SDS011;2429;52.586;14.322;2023-12-04T17:45:11;36.17;;;15.93;;
4829;SDS011;2429;52.586;14.322;2023-12-04T17:50:18;33.70;;;15.63;;
4829;SDS011;2429;52.586;14.322;2023-12-04T17:55:22;27.55;;;15.23;;
4829;SDS011;2429;52.586;14.322;2023-12-04T18:00:28;34.03;;;17.00;;
4829;SDS011;2429;52.586;14.322;2023-12-04T18:05:33;37.28;;;16.67;;
4829;SDS011;2429;52.586;14.322;2023-12-04T18:10:37;28.35;;;13.90;;
4829;SDS011;2429;52.586;14.322;2023-12-04T18:15:43;35.55;;;15.13;;
4829;SDS011;2429;52.586;14.322;2023-12-04T18:20:47;31.70;;;16.00;;
4829;SDS011;2429;52.586;14.322;2023-12-04T18:25:52;32.22;;;17.88;;
4829;SDS011;2429;52.586;14.322;2023-12-04T18:30:58;37.25;;;17.73;;
4829;SDS011;2429;52.586;14.322;2023-12-04T18:36:02;37.35;;;17.42;;
4829;SDS011;2429;52.586;14.322;2023-12-04T18:41:07;32.75;;;16.63;;
4829;SDS011;2429;52.586;14.322;2023-12-04T18:46:14;30.52;;;17.13;;
4829;SDS011;2429;52.586;14.322;2023-12-04T18:51:19;36.58;;;15.77;;
4829;SDS011;2429;52.586;14.322;2023-12-04T18:56:23;37.35;;;18.75;;
4829;SDS011;2429;52.586;14.322;2023-12-04T19:01:29;35.75;;;17.30;;
4829;SDS011;2429;52.586;14.322;2023-12-04T19:06:33;35.70;;;17.70;;
4829;SDS011;2429;52.586;14.322;2023-12-04T19:11:37;44.15;;;19.80;;
4829;SDS011;2429;52.586;14.322;2023-12-04T19:16:42;46.08;;;20.55;;
4829;SDS011;2429;52.586;14.322;2023-12-04T19:21:46;36.03;;;18.13;;
4829;SDS011;2429;52.586;14.322;2023-12-04T19:26:49;43.30;;;19.88;;
4829;SDS011;2429;52.586;14.322;2023-12-04T19:31:55;39.78;;;18.17;;
4829;SDS011;2429;52.586;14.322;2023-12-04T19:36:59;43.35;;;19.42;;
4829;SDS011;2429;52.586;14.322;2023-12-04T19:42:03;35.83;;;19.13;;
4829;SDS011;2429;52.586;14.322;2023-12-04T19:47:08;44.00;;;19.65;;
4829;SDS011;2429;52.586;14.322;2023-12-04T19:52:12;37.17;;;18.60;;
4829;SDS011;2429;52.586;14.322;2023-12-04T19:57:16;40.00;;;18.10;;
4829;SDS011;2429;52.586;14.322;2023-12-04T20:02:23;39.45;;;19.73;;
4829;SDS011;2429;52.586;14.322;2023-12-04T20:07:27;35.65;;;18.10;;
4829;SDS011;2429;52.586;14.322;2023-12-04T20:12:32;65.32;;;24.80;;
4829;SDS011;2429;52.586;14.322;2023-12-04T20:17:37;53.35;;;23.80;;
4829;SDS011;2429;52.586;14.322;2023-12-04T20:22:41;50.50;;;24.08;;
4829;SDS011;2429;52.586;14.322;2023-12-04T20:27:46;50.13;;;22.35;;
4829;SDS011;2429;52.586;14.322;2023-12-04T20:32:52;46.00;;;22.02;;
4829;SDS011;2429;52.586;14.322;2023-12-04T20:37:56;56.33;;;25.25;;
4829;SDS011;2429;52.586;14.322;2023-12-04T20:43:00;58.10;;;25.63;;
4829;SDS011;2429;52.586;14.322;2023-12-04T20:48:08;55.55;;;25.40;;
4829;SDS011;2429;52.586;14.322;2023-12-04T20:53:13;39.97;;;19.10;;
4829;SDS011;2429;52.586;14.322;2023-12-04T20:58:17;38.80;;;18.50;;
4829;SDS011;2429;52.586;14.322;2023-12-04T21:03:23;52.80;;;25.77;;
4829;SDS011;2429;52.586;14.322;2023-12-04T21:08:28;39.60;;;19.55;;
4829;SDS011;2429;52.586;14.322;2023-12-04T21:13:32;36.95;;;17.92;;
4829;SDS011;2429;52.586;14.322;2023-12-04T21:18:37;37.97;;;17.40;;
4829;SDS011;2429;52.586;14.322;2023-12-04T21:23:42;37.40;;;18.48;;
4829;SDS011;2429;52.586;14.322;2023-12-04T21:28:46;44.22;;;18.83;;
4829;SDS011;2429;52.586;14.322;2023-12-04T21:33:53;37.50;;;17.77;;
4829;SDS011;2429;52.586;14.322;2023-12-04T21:38:59;33.88;;;16.40;;
4829;SDS011;2429;52.586;14.322;2023-12-04T21:44:03;39.78;;;17.08;;
4829;SDS011;2429;52.586;14.322;2023-12-04T21:49:09;33.75;;;17.33;;
4829;SDS011;2429;52.586;14.322;2023-12-04T21:54:14;35.83;;;16.95;;
4829;SDS011;2429;52.586;14.322;2023-12-04T21:59:19;42.78;;;19.92;;
4829;SDS011;2429;52.586;14.322;2023-12-04T22:04:31;44.40;;;18.98;;
4829;SDS011;2429;52.586;14.322;2023-12-04T22:09:36;39.88;;;17.42;;
4829;SDS011;2429;52.586;14.322;2023-12-04T22:14:41;36.80;;;17.65;;
4829;SDS011;2429;52.586;14.322;2023-12-04T22:19:46;36.42;;;16.58;;
4829;SDS011;2429;52.586;14.322;2023-12-04T22:24:51;39.00;;;19.42;;
4829;SDS011;2429;52.586;14.322;2023-12-04T22:29:55;37.92;;;18.42;;
4829;SDS011;2429;52.586;14.322;2023-12-04T22:35:01;39.33;;;19.20;;
4829;SDS011;2429;52.586;14.322;2023-12-04T22:40:07;39.13;;;18.70;;
4829;SDS011;2429;52.586;14.322;2023-12-04T22:45:13;42.10;;;18.63;;
4829;SDS011;2429;52.586;14.322;2023-12-04T22:50:19;41.80;;;18.02;;
4829;SDS011;2429;52.586;14.322;2023-12-04T22:55:23;43.17;;;18.50;;
4829;SDS011;2429;52.586;14.322;2023-12-04T23:00:27;40.60;;;17.20;;
4829;SDS011;2429;52.586;14.322;2023-12-04T23:05:32;38.45;;;18.60;;
4829;SDS011;2429;52.586;14.322;2023-12-04T23:10:36;38.78;;;18.10;;
4829;SDS011;2429;52.586;14.322;2023-12-04T23:15:39;40.28;;;17.27;;
4829;SDS011;2429;52.586;14.322;2023-12-04T23:20:45;45.33;;;19.38;;
4829;SDS011;2429;52.586;14.322;2023-12-04T23:25:49;40.33;;;19.35;;
4829;SDS011;2429;52.586;14.322;2023-12-04T23:30:53;36.05;;;18.10;;
4829;SDS011;2429;52.586;14.322;2023-12-04T23:35:58;40.83;;;19.13;;
4829;SDS011;2429;52.586;14.322;2023-12-04T23:41:02;38.30;;;19.52;;
4829;SDS011;2429;52.586;14.322;2023-12-04T23:46:07;42.00;;;18.48;;
4829;SDS011;2429;52.586;14.322;2023-12-04T23:51:12;46.95;;;20.35;;
4829;SDS011;2429;52.586;14.322;2023-12-04T23:56:16;48.35;;;19.60;;
